createdAt,value
2023-01-03T00:01:19.872Z,1.75
2023-01-03T00:03:47.504Z,2.00
2023-01-03T00:06:26.659Z,2.20
2023-01-03T00:08:56.209Z,1.90
2023-01-03T00:11:46.481Z,1.77
2023-01-03T00:14:19.152Z,1.80
2023-01-03T00:16:51.373Z,2.00
2023-01-03T00:19:19.236Z,2.05
2023-01-03T00:21:46.175Z,1.80
2023-01-03T00:24:13.258Z,1.95
2023-01-03T00:26:41.347Z,1.73
2023-01-03T00:29:09.612Z,2.13
2023-01-03T00:31:37.342Z,2.10
2023-01-03T00:34:04.819Z,1.73
2023-01-03T00:36:32.226Z,1.67
2023-01-03T00:38:59.370Z,2.90
2023-01-03T00:41:26.463Z,1.50
2023-01-03T00:43:53.771Z,1.67
2023-01-03T00:46:21.625Z,2.25
2023-01-03T00:48:48.631Z,1.70
2023-01-03T00:51:25.864Z,1.50
2023-01-03T00:53:55.453Z,1.60
2023-01-03T00:56:24.979Z,1.50
2023-01-03T00:58:52.436Z,1.90
2023-01-03T01:01:23.770Z,1.80
2023-01-03T01:03:53.702Z,1.77
2023-01-03T01:06:22.490Z,1.65
2023-01-03T01:08:51.654Z,1.83
2023-01-03T01:11:18.943Z,2.10
2023-01-03T01:13:47.101Z,1.73
2023-01-03T01:16:17.796Z,1.75
2023-01-03T01:18:47.360Z,1.70
2023-01-03T01:21:20.566Z,1.27
2023-01-03T01:23:48.113Z,1.60
2023-01-03T01:26:18.515Z,2.45
2023-01-03T01:28:46.157Z,1.60
2023-01-03T01:31:17.464Z,1.90
2023-01-03T01:33:44.989Z,1.77
2023-01-03T01:36:20.923Z,1.30
2023-01-03T01:38:48.977Z,1.65
2023-01-03T01:41:37.689Z,1.90
2023-01-03T01:44:23.471Z,1.48
2023-01-03T01:46:51.591Z,1.55
2023-01-03T01:49:23.741Z,1.40
2023-01-03T01:51:51.101Z,1.85
2023-01-03T01:54:19.666Z,1.58
2023-01-03T01:56:49.440Z,1.80
2023-01-03T01:59:16.633Z,1.42
2023-01-03T02:01:46.441Z,2.03
2023-01-03T02:04:29.310Z,1.50
2023-01-03T02:06:56.949Z,1.50
2023-01-03T02:09:24.313Z,1.70
2023-01-03T02:12:21.677Z,2.15
2023-01-03T02:14:51.371Z,1.45
2023-01-03T02:17:20.863Z,1.40
2023-01-03T02:19:56.595Z,1.73
2023-01-03T02:22:35.370Z,1.58
2023-01-03T02:25:17.516Z,1.95
2023-01-03T02:28:16.398Z,1.48
2023-01-03T02:30:48.920Z,2.15
2023-01-03T02:33:28.145Z,1.65
2023-01-03T02:36:06.013Z,2.08
2023-01-03T02:39:04.220Z,1.60
2023-01-03T02:41:37.976Z,1.80
2023-01-03T02:44:19.056Z,1.55
2023-01-03T02:47:12.432Z,1.20
2023-01-03T02:49:41.841Z,1.55
2023-01-03T02:52:13.873Z,1.75
2023-01-03T02:54:51.460Z,2.05
2023-01-03T02:57:23.116Z,1.55
2023-01-03T03:00:08.478Z,1.20
2023-01-03T03:02:37.810Z,1.40
2023-01-03T03:05:12.750Z,1.55
2023-01-03T03:07:41.203Z,1.48
2023-01-03T03:10:30.158Z,1.25
2023-01-03T03:13:13.757Z,1.58
2023-01-03T03:15:59.337Z,1.33
2023-01-03T03:18:39.100Z,1.45
2023-01-03T03:21:28.424Z,1.35
2023-01-03T03:24:26.100Z,1.27
2023-01-03T03:26:56.367Z,1.13
2023-01-03T03:29:23.301Z,1.38
2023-01-03T03:31:52.035Z,1.45
2023-01-03T03:34:27.930Z,1.65
2023-01-03T03:37:27.352Z,1.60
2023-01-03T03:40:14.002Z,1.33
2023-01-03T03:42:59.318Z,1.65
2023-01-03T03:45:29.151Z,1.58
2023-01-03T03:48:01.979Z,1.30
2023-01-03T03:50:38.277Z,1.42
2023-01-03T03:53:08.689Z,1.10
2023-01-03T03:55:44.114Z,1.40
2023-01-03T03:58:49.759Z,1.25
2023-01-03T04:01:20.588Z,1.40
2023-01-03T04:03:50.415Z,1.45
2023-01-03T04:06:28.758Z,1.48
2023-01-03T04:08:55.603Z,1.33
2023-01-03T04:11:22.607Z,1.73
2023-01-03T04:13:49.440Z,1.65
2023-01-03T04:16:16.398Z,1.17
2023-01-03T04:18:43.402Z,1.27
2023-01-03T04:21:13.245Z,1.45
2023-01-03T04:23:44.040Z,1.50
2023-01-03T04:26:10.877Z,1.30
2023-01-03T04:28:37.649Z,1.67
2023-01-03T04:31:04.554Z,1.90
2023-01-03T04:33:31.420Z,1.58
2023-01-03T04:35:58.199Z,1.42
2023-01-03T04:38:25.051Z,2.13
2023-01-03T04:40:51.905Z,1.35
2023-01-03T04:43:37.711Z,1.40
2023-01-03T04:46:04.749Z,1.67
2023-01-03T04:48:31.611Z,1.50
2023-01-03T04:51:00.197Z,1.50
2023-01-03T04:53:27.999Z,1.50
2023-01-03T04:55:57.087Z,1.17
2023-01-03T04:58:24.119Z,1.70
2023-01-03T05:00:51.523Z,1.25
2023-01-03T05:03:23.995Z,1.60
2023-01-03T05:05:52.703Z,1.30
2023-01-03T05:08:19.665Z,1.15
2023-01-03T05:10:46.519Z,1.38
2023-01-03T05:13:13.333Z,1.08
2023-01-03T05:15:40.422Z,1.25
2023-01-03T05:18:07.242Z,1.70
2023-01-03T05:20:56.020Z,1.48
2023-01-03T05:23:42.393Z,1.30
2023-01-03T05:26:15.822Z,1.40
2023-01-03T05:28:45.311Z,1.65
2023-01-03T05:31:12.726Z,1.30
2023-01-03T05:33:41.026Z,1.63
2023-01-03T05:36:09.406Z,1.30
2023-01-03T05:38:37.429Z,1.20
2023-01-03T05:41:05.570Z,1.52
2023-01-03T05:43:32.550Z,1.17
2023-01-03T05:45:59.472Z,1.50
2023-01-03T05:48:27.264Z,1.25
2023-01-03T05:50:57.800Z,0.98
2023-01-03T05:53:25.737Z,1.40
2023-01-03T05:55:52.588Z,1.30
2023-01-03T05:58:19.738Z,1.02
2023-01-03T06:00:46.590Z,1.73
2023-01-03T06:03:13.467Z,1.40
2023-01-03T06:05:46.105Z,1.25
2023-01-03T06:08:16.637Z,1.38
2023-01-03T06:10:43.484Z,1.13
2023-01-03T06:13:10.412Z,0.88
2023-01-03T06:15:37.262Z,1.10
2023-01-03T06:18:04.292Z,0.88
2023-01-03T06:20:31.219Z,1.30
2023-01-03T06:22:58.184Z,1.38
2023-01-03T06:25:25.671Z,0.95
2023-01-03T06:27:52.517Z,1.20
2023-01-03T06:30:19.475Z,1.60
2023-01-03T06:32:46.322Z,1.67
2023-01-03T06:35:13.646Z,1.60
2023-01-03T06:37:40.503Z,1.50
2023-01-03T06:40:08.000Z,1.45
2023-01-03T06:42:43.393Z,0.90
2023-01-03T06:45:32.070Z,1.50
2023-01-03T06:48:21.754Z,2.70
2023-01-03T06:51:07.405Z,2.92
2023-01-03T06:53:37.632Z,2.35
2023-01-03T06:56:05.673Z,3.22
2023-01-03T06:58:32.628Z,4.63
2023-01-03T07:01:04.185Z,4.35
2023-01-03T07:03:32.348Z,4.32
2023-01-03T07:05:59.540Z,4.05
2023-01-03T07:08:26.441Z,5.70
2023-01-03T07:10:54.293Z,4.18
2023-01-03T07:13:39.358Z,1.80
2023-01-03T07:16:06.346Z,4.28
2023-01-03T07:18:34.204Z,2.72
2023-01-03T07:21:01.070Z,3.90
2023-01-03T07:23:27.863Z,3.35
2023-01-03T07:25:55.886Z,3.95
2023-01-03T07:28:22.714Z,2.95
2023-01-03T07:30:49.752Z,3.15
2023-01-03T07:33:18.351Z,3.13
2023-01-03T07:35:45.933Z,2.17
2023-01-03T07:38:13.821Z,2.10
2023-01-03T07:40:40.954Z,3.13
2023-01-03T07:43:33.804Z,5.07
2023-01-03T07:46:00.709Z,3.17
2023-01-03T07:48:27.639Z,4.00
2023-01-03T07:50:58.161Z,4.53
2023-01-03T07:53:25.777Z,3.05
2023-01-03T07:55:52.857Z,3.13
2023-01-03T07:58:19.743Z,2.15
2023-01-03T08:00:46.635Z,3.38
2023-01-03T08:03:14.661Z,3.92
2023-01-03T08:05:41.529Z,2.70
2023-01-03T08:08:09.391Z,2.40
2023-01-03T08:10:54.851Z,1.70
2023-01-03T08:13:22.016Z,1.55
2023-01-03T08:15:52.044Z,1.60
2023-01-03T08:18:27.143Z,2.13
2023-01-03T08:20:55.798Z,1.70
2023-01-03T08:23:23.717Z,2.00
2023-01-03T08:25:50.932Z,1.52
2023-01-03T08:28:18.213Z,1.45
2023-01-03T08:30:48.805Z,1.95
2023-01-03T08:33:18.689Z,1.63
2023-01-03T08:36:07.283Z,1.55
2023-01-03T08:38:45.837Z,1.90
2023-01-03T08:41:16.757Z,1.63
2023-01-03T08:43:46.848Z,1.23
2023-01-03T08:46:16.377Z,1.83
2023-01-03T08:48:44.087Z,2.33
2023-01-03T08:51:11.151Z,1.17
2023-01-03T08:53:38.130Z,1.33
2023-01-03T08:56:05.273Z,1.23
2023-01-03T08:58:32.468Z,1.33
2023-01-03T09:01:04.153Z,1.33
2023-01-03T09:03:31.181Z,0.98
2023-01-03T09:06:03.213Z,1.70
2023-01-03T09:08:31.451Z,2.03
2023-01-03T09:10:58.958Z,2.17
2023-01-03T09:13:25.851Z,1.88
2023-01-03T09:16:01.272Z,1.40
2023-01-03T09:18:28.135Z,1.60
2023-01-03T09:20:55.083Z,1.23
2023-01-03T09:23:21.968Z,1.70
2023-01-03T09:25:48.825Z,1.17
2023-01-03T09:28:15.709Z,1.25
2023-01-03T09:30:42.553Z,1.23
2023-01-03T09:33:10.953Z,0.85
2023-01-03T09:35:38.361Z,1.33
2023-01-03T09:38:06.115Z,1.00
2023-01-03T09:40:38.474Z,1.10
2023-01-03T09:43:19.816Z,0.85
2023-01-03T09:45:55.344Z,0.77
2023-01-03T09:48:36.230Z,1.00
2023-01-03T09:51:19.743Z,0.77
2023-01-03T09:54:08.147Z,0.60
2023-01-03T09:56:53.979Z,0.63
2023-01-03T09:59:39.434Z,0.90
2023-01-03T10:02:49.387Z,1.00
2023-01-03T10:05:36.725Z,1.45
2023-01-03T10:08:25.832Z,5.03
2023-01-03T10:11:12.471Z,1.83
2023-01-03T10:14:00.463Z,1.58
2023-01-03T10:16:56.497Z,1.88
2023-01-03T10:19:32.084Z,1.13
2023-01-03T10:22:14.306Z,1.85
2023-01-03T10:25:01.581Z,1.63
2023-01-03T10:27:33.463Z,1.10
2023-01-03T10:30:07.031Z,1.27
2023-01-03T10:32:44.572Z,0.98
2023-01-03T10:35:17.696Z,1.20
2023-01-03T10:37:45.515Z,0.90
2023-01-03T10:40:14.535Z,1.45
2023-01-03T10:42:42.775Z,0.85
2023-01-03T10:45:19.207Z,0.95
2023-01-03T10:47:58.602Z,0.70
2023-01-03T10:50:25.820Z,1.48
2023-01-03T10:53:04.510Z,0.95
2023-01-03T10:55:35.161Z,1.20
2023-01-03T10:58:04.616Z,0.90
2023-01-03T11:00:31.689Z,0.80
2023-01-03T11:03:10.148Z,1.23
2023-01-03T11:05:38.446Z,0.80
2023-01-03T11:08:13.763Z,2.25
2023-01-03T11:10:56.110Z,1.60
2023-01-03T11:13:40.004Z,1.65
2023-01-03T11:16:16.389Z,1.33
2023-01-03T11:18:44.936Z,1.52
2023-01-03T11:21:14.802Z,1.35
2023-01-03T11:23:53.161Z,1.70
2023-01-03T11:26:38.215Z,1.52
2023-01-03T11:29:24.380Z,1.50
2023-01-03T11:32:22.058Z,1.30
2023-01-03T11:35:23.436Z,1.65
2023-01-03T11:37:51.491Z,1.17
2023-01-03T11:40:27.200Z,1.58
2023-01-03T11:43:00.698Z,0.93
2023-01-03T11:45:56.397Z,1.00
2023-01-03T11:48:28.958Z,1.00
2023-01-03T11:51:02.050Z,0.88
2023-01-03T11:53:40.201Z,0.90
2023-01-03T11:56:42.069Z,1.00
2023-01-03T11:59:41.655Z,0.80
2023-01-03T12:02:51.372Z,1.00
2023-01-03T12:05:21.553Z,1.20
2023-01-03T12:08:17.031Z,1.10
2023-01-03T12:10:59.364Z,1.02
2023-01-03T12:14:08.345Z,0.80
2023-01-03T12:17:00.228Z,0.80
2023-01-03T12:19:43.832Z,1.17
2023-01-03T12:22:34.333Z,1.10
2023-01-03T12:25:28.728Z,1.17
2023-01-03T12:28:11.273Z,0.90
2023-01-03T12:30:44.918Z,1.00
2023-01-03T12:33:33.395Z,0.90
2023-01-03T12:36:00.456Z,1.30
2023-01-03T12:38:37.924Z,1.00
2023-01-03T12:41:27.191Z,0.90
2023-01-03T12:44:04.287Z,0.90
2023-01-03T12:46:41.774Z,1.00
2023-01-03T12:49:24.189Z,1.30
2023-01-03T12:51:51.148Z,0.88
2023-01-03T12:54:43.380Z,2.00
2023-01-03T12:57:39.653Z,1.75
2023-01-03T13:00:22.227Z,1.45
2023-01-03T13:03:05.446Z,1.63
2023-01-03T13:05:53.328Z,1.58
2023-01-03T13:08:52.107Z,1.65
2023-01-03T13:11:27.794Z,1.85
2023-01-03T13:13:57.866Z,1.80
2023-01-03T13:16:37.009Z,1.63
2023-01-03T13:19:22.284Z,1.45
2023-01-03T13:21:56.140Z,2.13
2023-01-03T13:24:44.975Z,1.65
2023-01-03T13:27:18.127Z,1.35
2023-01-03T13:29:51.166Z,1.40
2023-01-03T13:32:24.243Z,2.03
2023-01-03T13:34:54.306Z,1.70
2023-01-03T13:37:23.351Z,2.03
2023-01-03T13:40:11.331Z,1.80
2023-01-03T13:42:40.149Z,1.92
2023-01-03T13:45:30.015Z,2.65
2023-01-03T13:47:57.807Z,2.13
2023-01-03T13:50:34.344Z,1.70
2023-01-03T13:53:21.664Z,2.03
2023-01-03T13:56:17.707Z,2.00
2023-01-03T13:58:54.054Z,1.85
2023-01-03T14:01:36.233Z,1.90
2023-01-03T14:04:18.175Z,7.20
2023-01-03T14:06:45.294Z,5.55
2023-01-03T14:09:30.863Z,3.10
2023-01-03T14:12:22.558Z,2.72
2023-01-03T14:14:59.539Z,2.60
2023-01-03T14:17:36.620Z,1.95
2023-01-03T14:20:09.779Z,2.10
2023-01-03T14:22:48.720Z,2.00
2023-01-03T14:25:37.836Z,1.92
2023-01-03T14:28:26.538Z,1.90
2023-01-03T14:30:56.769Z,1.75
2023-01-03T14:33:26.099Z,1.55
2023-01-03T14:36:17.062Z,1.98
2023-01-03T14:38:59.909Z,1.92
2023-01-03T14:41:38.405Z,1.95
2023-01-03T14:44:16.675Z,1.50
2023-01-03T14:46:56.107Z,1.63
2023-01-03T14:49:39.774Z,2.03
2023-01-03T14:52:13.540Z,1.67
2023-01-03T14:54:44.886Z,1.20
2023-01-03T14:57:20.763Z,1.30
2023-01-03T14:59:49.003Z,1.17
2023-01-03T15:02:16.648Z,1.40
2023-01-03T15:04:46.119Z,1.05
2023-01-03T15:07:33.836Z,1.20
2023-01-03T15:10:12.688Z,1.00
2023-01-03T15:12:44.235Z,1.02
2023-01-03T15:15:39.298Z,1.13
2023-01-03T15:18:09.650Z,1.13
2023-01-03T15:20:40.548Z,1.45
2023-01-03T15:23:08.663Z,1.27
2023-01-03T15:25:39.355Z,1.45
2023-01-03T15:28:52.847Z,1.42
2023-01-03T15:31:28.691Z,1.40
2023-01-03T15:34:23.756Z,1.92
2023-01-03T15:37:17.245Z,1.60
2023-01-03T15:39:49.983Z,1.60
2023-01-03T15:42:47.837Z,1.73
2023-01-03T15:45:22.862Z,1.60
2023-01-03T15:47:53.119Z,1.77
2023-01-03T15:50:20.783Z,2.03
2023-01-03T15:52:49.192Z,2.08
2023-01-03T15:55:18.285Z,5.07
2023-01-03T15:57:51.482Z,3.38
2023-01-03T16:00:21.882Z,2.90
2023-01-03T16:02:50.097Z,3.55
2023-01-03T16:05:22.588Z,2.67
2023-01-03T16:07:51.615Z,2.95
2023-01-03T16:10:18.756Z,2.47
2023-01-03T16:12:45.869Z,2.58
2023-01-03T16:15:22.714Z,2.22
2023-01-03T16:17:51.379Z,2.30
2023-01-03T16:20:20.325Z,1.98
2023-01-03T16:23:00.482Z,1.90
2023-01-03T16:27:56.554Z,1.65
2023-01-03T16:30:24.865Z,1.85
2023-01-03T16:32:52.121Z,1.60
2023-01-03T16:35:21.007Z,1.60
2023-01-03T16:37:48.516Z,2.00
2023-01-03T16:40:18.564Z,2.10
2023-01-03T16:42:45.704Z,1.80
2023-01-03T16:45:13.878Z,2.00
2023-01-03T16:47:43.229Z,2.38
2023-01-03T16:50:19.732Z,2.30
2023-01-03T16:52:56.098Z,2.08
2023-01-03T16:55:35.962Z,1.75
2023-01-03T16:58:03.047Z,1.58
2023-01-03T17:00:34.335Z,1.60
2023-01-03T17:03:03.293Z,1.95
2023-01-03T17:05:36.438Z,1.80
2023-01-03T17:08:08.478Z,1.17
2023-01-03T17:10:39.341Z,1.58
2023-01-03T17:13:12.375Z,1.60
2023-01-03T17:15:42.935Z,1.65
2023-01-03T17:18:26.988Z,2.65
2023-01-03T17:21:05.772Z,1.40
2023-01-03T17:23:40.958Z,1.48
2023-01-03T17:26:15.576Z,1.48
2023-01-03T17:28:45.090Z,1.73
2023-01-03T17:31:25.737Z,1.35
2023-01-03T17:33:55.628Z,1.10
2023-01-03T17:36:33.068Z,1.00
2023-01-03T17:39:04.586Z,1.00
2023-01-03T17:41:55.273Z,1.38
2023-01-03T17:44:23.234Z,1.25
2023-01-03T17:47:11.811Z,3.95
2023-01-03T17:49:39.797Z,3.40
2023-01-03T17:52:10.029Z,3.97
2023-01-03T17:54:40.061Z,3.83
2023-01-03T17:57:11.421Z,3.22
2023-01-03T17:59:38.656Z,2.58
2023-01-03T18:02:26.320Z,3.13
2023-01-03T18:07:41.292Z,2.78
2023-01-03T18:10:18.913Z,2.72
2023-01-03T18:12:46.013Z,3.70
2023-01-03T18:15:22.025Z,2.38
2023-01-03T18:17:51.201Z,3.70
2023-01-03T18:20:19.680Z,3.03
2023-01-03T18:22:48.120Z,2.55
2023-01-03T18:25:23.834Z,3.65
2023-01-03T18:27:55.746Z,5.07
2023-01-03T18:30:23.587Z,4.80
2023-01-03T18:32:50.900Z,3.40
2023-01-03T18:35:28.456Z,2.92
2023-01-03T18:37:58.059Z,3.45
2023-01-03T18:40:30.790Z,7.88
2023-01-03T18:43:13.263Z,12.77
2023-01-03T18:45:42.315Z,16.27
2023-01-03T18:48:18.553Z,27.67
2023-01-03T18:50:53.679Z,22.20
2023-01-03T18:53:28.987Z,17.33
2023-01-03T18:55:56.831Z,16.23
2023-01-03T18:58:33.137Z,15.65
2023-01-03T19:01:01.123Z,17.58
2023-01-03T19:03:30.812Z,14.27
2023-01-03T19:06:00.043Z,15.82
2023-01-03T19:08:33.433Z,14.60
2023-01-03T19:11:08.329Z,14.27
2023-01-03T19:13:51.175Z,13.05
2023-01-03T19:16:31.428Z,11.15
2023-01-03T19:19:01.102Z,8.70
2023-01-03T19:21:37.149Z,8.43
2023-01-03T19:24:37.955Z,7.55
2023-01-03T19:27:21.337Z,7.20
2023-01-03T19:29:49.581Z,6.78
2023-01-03T19:32:24.756Z,6.00
2023-01-03T19:34:53.893Z,6.53
2023-01-03T19:37:21.533Z,5.57
2023-01-03T19:39:51.165Z,5.00
2023-01-03T19:42:40.255Z,5.13
2023-01-03T19:45:29.529Z,4.80
2023-01-03T19:48:01.366Z,4.78
2023-01-03T19:50:34.748Z,4.40
2023-01-03T19:53:04.743Z,4.07
2023-01-03T19:55:38.149Z,3.40
2023-01-03T19:58:18.421Z,3.22
2023-01-03T20:00:48.433Z,3.67
2023-01-03T20:03:34.260Z,2.75
2023-01-03T20:06:02.185Z,2.60
2023-01-03T20:08:30.029Z,2.88
2023-01-03T20:11:01.174Z,2.70
2023-01-03T20:16:00.907Z,2.80
2023-01-03T20:18:40.429Z,2.70
2023-01-03T20:21:21.936Z,2.50
2023-01-03T20:23:54.836Z,2.30
2023-01-03T20:26:29.748Z,2.20
2023-01-03T20:28:58.961Z,1.70
2023-01-03T20:31:27.477Z,1.77
2023-01-03T20:33:54.829Z,1.67
2023-01-03T20:36:34.763Z,1.77
2023-01-03T20:39:02.445Z,2.00
2023-01-03T20:41:38.613Z,2.58
2023-01-03T20:44:09.229Z,1.70
2023-01-03T20:46:39.625Z,2.30
2023-01-03T20:49:15.235Z,1.42
2023-01-03T20:51:43.929Z,1.60
2023-01-03T20:54:13.872Z,1.55
2023-01-03T20:56:42.583Z,1.50
2023-01-03T20:59:18.889Z,1.20
2023-01-03T21:01:49.152Z,2.28
2023-01-03T21:04:17.547Z,1.42
2023-01-03T21:06:46.811Z,2.95
2023-01-03T21:09:15.666Z,1.70
2023-01-03T21:11:48.989Z,2.50
2023-01-03T21:14:19.190Z,2.20
2023-01-03T21:16:49.422Z,1.60
2023-01-03T21:19:24.153Z,1.60
2023-01-03T21:21:55.008Z,1.38
2023-01-03T21:24:25.779Z,1.30
2023-01-03T21:26:54.943Z,1.20
2023-01-03T21:29:24.048Z,1.13
2023-01-03T21:31:52.908Z,1.63
2023-01-03T21:34:23.396Z,1.20
2023-01-03T21:36:51.330Z,1.10
2023-01-03T21:39:19.575Z,0.93
2023-01-03T21:42:06.821Z,1.20
2023-01-03T21:44:36.486Z,1.30
2023-01-03T21:47:03.753Z,1.25
2023-01-03T21:49:32.046Z,1.30
2023-01-03T21:51:59.617Z,1.10
2023-01-03T21:54:27.449Z,1.30
2023-01-03T21:56:55.100Z,1.20
2023-01-03T21:59:22.612Z,1.40
2023-01-03T22:02:08.653Z,1.25
2023-01-03T22:04:38.090Z,1.20
2023-01-03T22:07:06.432Z,1.20
2023-01-03T22:09:52.234Z,1.30
2023-01-03T22:12:19.842Z,1.35
2023-01-03T22:14:48.024Z,1.23
2023-01-03T22:17:15.955Z,1.17
2023-01-03T22:19:43.016Z,1.20
2023-01-03T22:22:10.917Z,1.27
2023-01-03T22:24:38.252Z,1.15
2023-01-03T22:27:05.781Z,1.30
2023-01-03T22:29:33.431Z,1.35
2023-01-03T22:32:00.694Z,1.30
2023-01-03T22:34:28.434Z,1.35
2023-01-03T22:36:55.696Z,1.45
2023-01-03T22:39:23.426Z,1.30
2023-01-03T22:41:50.724Z,1.30
2023-01-03T22:44:17.979Z,1.35
2023-01-03T22:46:45.650Z,1.50
2023-01-03T22:49:12.889Z,1.38
2023-01-03T22:51:40.428Z,1.40
2023-01-03T22:54:10.810Z,1.40
2023-01-03T22:56:38.932Z,1.30
2023-01-03T22:59:06.304Z,1.50
2023-01-03T23:01:33.944Z,1.67
2023-01-03T23:04:02.054Z,1.35
2023-01-03T23:06:33.074Z,1.50
2023-01-03T23:09:03.972Z,1.50
2023-01-03T23:11:51.787Z,1.60
2023-01-03T23:14:23.571Z,1.50
2023-01-03T23:16:52.980Z,1.60
2023-01-03T23:19:23.379Z,1.90
2023-01-03T23:21:52.475Z,1.60
2023-01-03T23:24:23.165Z,1.63
2023-01-03T23:26:52.891Z,1.90
2023-01-03T23:29:20.321Z,1.73
2023-01-03T23:31:47.645Z,1.60
2023-01-03T23:34:15.045Z,1.60
2023-01-03T23:36:46.024Z,1.50
2023-01-03T23:39:16.109Z,1.70
2023-01-03T23:41:43.746Z,1.80
2023-01-03T23:44:11.453Z,1.63
2023-01-03T23:46:39.143Z,1.77
2023-01-03T23:49:06.613Z,1.60
2023-01-03T23:51:33.671Z,1.70
2023-01-03T23:54:00.774Z,1.67
2023-01-03T23:56:27.953Z,1.73
2023-01-03T23:58:55.040Z,1.55
